Time;durP1;ratioP1;P1;durP2;ratioP2;P2;SDS_P1;SDS_P2;PMS_P1;PMS_P2;Temp;Humidity;BMP_temperature;BMP_pressure;BME280_temperature;BME280_humidity;BME280_pressure;Samples;Min_cycle;Max_cycle;Signal;HPM_P1;HPM_P2
2022/04/20 06:00:55;;;;;;;22.80;10.23;;;;;;;;;;5670877;23;20059;-81
2022/04/20 06:03:22;;;;;;;30.42;10.27;;;;;;;;;;4931893;28;20071;-82
2022/04/20 06:05:48;;;;;;;30.48;11.18;;;;;;;;;;4932812;28;20055;-81
2022/04/20 06:08:15;;;;;;;29.90;11.00;;;;;;;;;;4928467;28;20055;-81
2022/04/20 06:10:44;;;;;;;25.85;10.27;;;;;;;;;;4932388;29;20071;-81
2022/04/20 06:13:11;;;;;;;30.98;9.40;;;;;;;;;;4922562;29;20100;-80
2022/04/20 06:15:38;;;;;;;25.75;11.00;;;;;;;;;;4932945;28;20047;-82
2022/04/20 06:18:05;;;;;;;27.42;9.73;;;;;;;;;;4932530;28;20437;-81
2022/04/20 06:20:31;;;;;;;27.23;10.38;;;;;;;;;;4932877;28;20505;-82
2022/04/20 06:22:58;;;;;;;23.05;8.65;;;;;;;;;;4932875;29;20062;-80
2022/04/20 06:25:24;;;;;;;29.60;9.48;;;;;;;;;;4931159;29;20051;-81
2022/04/20 06:27:51;;;;;;;29.88;9.10;;;;;;;;;;4924348;29;20647;-82
2022/04/20 06:30:17;;;;;;;26.52;8.73;;;;;;;;;;4925895;28;20122;-82
2022/04/20 06:32:44;;;;;;;25.60;9.50;;;;;;;;;;4933036;28;20073;-80
2022/04/20 06:35:11;;;;;;;23.25;8.45;;;;;;;;;;4932200;28;20052;-80
2022/04/20 06:37:37;;;;;;;26.98;8.52;;;;;;;;;;4933598;29;20044;-81
2022/04/20 06:40:04;;;;;;;20.08;8.40;;;;;;;;;;4922410;29;20115;-81
2022/04/20 06:42:33;;;;;;;23.85;8.43;;;;;;;;;;4927159;28;20138;-81
2022/04/20 06:44:59;;;;;;;37.70;9.52;;;;;;;;;;4933681;28;20120;-81
2022/04/20 06:47:27;;;;;;;33.38;9.50;;;;;;;;;;4929762;28;20135;-81
2022/04/20 06:49:54;;;;;;;26.95;9.05;;;;;;;;;;4928972;29;20771;-82
2022/04/20 07:00:37;;;;;;;23.90;8.57;;;;;;;;;;4927920;29;20174;-81
2022/04/20 07:03:06;;;;;;;29.50;8.65;;;;;;;;;;4927557;29;20078;-81
2022/04/20 07:05:33;;;;;;;25.70;10.02;;;;;;;;;;4928815;29;20047;-82
2022/04/20 07:08:00;;;;;;;20.80;9.25;;;;;;;;;;4926765;29;20115;-80
2022/04/20 07:10:28;;;;;;;25.88;8.93;;;;;;;;;;4926692;29;20324;-82
2022/04/20 07:12:55;;;;;;;26.30;9.77;;;;;;;;;;4928128;29;20047;-82
2022/04/20 07:15:21;;;;;;;24.40;9.00;;;;;;;;;;4927267;29;20540;-82
2022/04/20 07:17:48;;;;;;;20.98;9.05;;;;;;;;;;4925336;29;20051;-81
2022/04/20 07:20:17;;;;;;;30.58;9.43;;;;;;;;;;4926305;29;20074;-82
2022/04/20 07:22:48;;;;;;;23.58;9.45;;;;;;;;;;4928321;29;20051;-80
2022/04/20 07:25:16;;;;;;;21.88;9.23;;;;;;;;;;4928655;29;20051;-82
2022/04/20 07:27:45;;;;;;;30.95;9.65;;;;;;;;;;4928338;29;20047;-80
2022/04/20 07:30:12;;;;;;;;;;;;;;;;;;4927952;29;20096;-81
2022/04/20 07:32:39;;;;;;;39.90;11.43;;;;;;;;;;4929449;29;19930;-80
2022/04/20 07:35:05;;;;;;;30.02;9.52;;;;;;;;;;4929358;29;20071;-83
2022/04/20 07:37:33;;;;;;;29.85;9.98;;;;;;;;;;4934320;29;20678;-83
2022/04/20 07:39:59;;;;;;;32.67;9.43;;;;;;;;;;4930706;29;20056;-81
2022/04/20 07:42:26;;;;;;;27.98;9.15;;;;;;;;;;4933319;29;20736;-82
2022/04/20 07:44:56;;;;;;;37.42;9.98;;;;;;;;;;4930898;29;20044;-81
2022/04/20 07:47:24;;;;;;;28.85;9.02;;;;;;;;;;4930361;29;20559;-81
2022/04/20 07:52:41;;;;;;;21.83;7.85;;;;;;;;;;4930877;28;20067;-81
2022/04/20 07:55:11;;;;;;;19.85;8.50;;;;;;;;;;4928198;28;20075;-82
2022/04/20 07:57:38;;;;;;;22.42;8.55;;;;;;;;;;4927794;28;20051;-80
2022/04/20 08:00:06;;;;;;;26.63;9.57;;;;;;;;;;4930525;28;20043;-83
2022/04/20 08:02:33;;;;;;;25.35;8.60;;;;;;;;;;4941680;29;20444;-79
2022/04/20 08:05:00;;;;;;;28.17;9.38;;;;;;;;;;4939057;28;20050;-82
2022/04/20 08:07:27;;;;;;;25.98;8.77;;;;;;;;;;4930595;29;20075;-81
2022/04/20 08:09:54;;;;;;;20.15;8.63;;;;;;;;;;4932977;29;20067;-82
2022/04/20 08:12:21;;;;;;;26.27;8.95;;;;;;;;;;4940344;28;20117;-81
2022/04/20 08:14:47;;;;;;;27.20;8.88;;;;;;;;;;4938548;28;20558;-81
2022/04/20 08:17:14;;;;;;;24.65;9.40;;;;;;;;;;4942187;28;20078;-81
2022/04/20 08:19:40;;;;;;;23.45;8.50;;;;;;;;;;4943597;28;20118;-82
2022/04/20 08:22:07;;;;;;;29.88;8.80;;;;;;;;;;4939441;28;20764;-82
2022/04/20 08:24:33;;;;;;;30.38;8.27;;;;;;;;;;4939884;28;20078;-82
2022/04/20 08:27:02;;;;;;;21.38;8.63;;;;;;;;;;4936061;29;20099;-82
2022/04/20 08:29:28;;;;;;;25.92;8.13;;;;;;;;;;4929570;29;20480;-81
2022/04/20 08:31:55;;;;;;;34.15;9.35;;;;;;;;;;4930261;29;20048;-82
2022/04/20 08:34:22;;;;;;;20.35;8.55;;;;;;;;;;4930170;29;20183;-82
2022/04/20 08:36:48;;;;;;;21.73;10.60;;;;;;;;;;4925847;29;20075;-83
2022/04/20 08:39:15;;;;;;;33.38;10.10;;;;;;;;;;4925038;29;20075;-83
2022/04/20 08:41:47;;;;;;;32.42;10.02;;;;;;;;;;4927819;29;20130;-83
2022/04/20 08:44:19;;;;;;;21.05;9.90;;;;;;;;;;4925924;29;20075;-84
2022/04/20 08:46:47;;;;;;;42.47;10.73;;;;;;;;;;4935841;28;20051;-84
2022/04/20 08:49:14;;;;;;;47.80;11.82;;;;;;;;;;4933148;28;20492;-83
2022/04/20 08:54:28;;;;;;;45.22;12.63;;;;;;;;;;4927098;29;20151;-82
2022/04/20 08:59:43;;;;;;;20.17;11.63;;;;;;;;;;4927736;29;20079;-83
2022/04/20 09:02:13;;;;;;;26.10;14.07;;;;;;;;;;4929323;28;20490;-83
2022/04/20 09:04:41;;;;;;;24.35;14.35;;;;;;;;;;4923829;29;20155;-82
2022/04/20 09:07:09;;;;;;;26.27;14.93;;;;;;;;;;4925563;28;20043;-82
2022/04/20 09:09:37;;;;;;;28.08;14.68;;;;;;;;;;4929877;29;20082;-83
2022/04/20 09:12:10;;;;;;;26.15;14.45;;;;;;;;;;4929022;29;20052;-83
2022/04/20 09:14:40;;;;;;;22.27;14.43;;;;;;;;;;4929217;29;20139;-84
2022/04/20 09:17:16;;;;;;;21.67;14.65;;;;;;;;;;4928752;29;20174;-84
2022/04/20 09:19:48;;;;;;;26.08;15.68;;;;;;;;;;4930417;29;20520;-82
2022/04/20 09:22:21;;;;;;;34.53;15.82;;;;;;;;;;4929352;29;20138;-83
2022/04/20 09:24:57;;;;;;;29.38;14.85;;;;;;;;;;4928487;29;20111;-83
2022/04/20 09:27:26;;;;;;;28.33;15.20;;;;;;;;;;4926803;29;20110;-81
2022/04/20 09:29:54;;;;;;;25.75;16.20;;;;;;;;;;4928944;29;20075;-83
2022/04/20 09:32:39;;;;;;;26.53;15.50;;;;;;;;;;4922155;29;20074;-83
2022/04/20 09:35:12;;;;;;;29.20;15.25;;;;;;;;;;4926700;29;20102;-83
2022/04/20 09:37:40;;;;;;;26.98;16.52;;;;;;;;;;4928997;28;20130;-83
2022/04/20 09:40:11;;;;;;;27.85;15.40;;;;;;;;;;4924398;29;20134;-83
2022/04/20 09:43:15;;;;;;;29.85;15.95;;;;;;;;;;4919322;29;20063;-83
2022/04/20 09:45:42;;;;;;;24.65;15.30;;;;;;;;;;4918361;29;20504;-82
2022/04/20 09:51:11;;;;;;;24.08;14.93;;;;;;;;;;4927759;29;20107;-84
2022/04/20 09:53:38;;;;;;;26.45;15.60;;;;;;;;;;4929620;29;20072;-83
2022/04/20 09:56:19;;;;;;;34.15;16.08;;;;;;;;;;4923860;28;23709;-82
2022/04/20 09:58:47;;;;;;;28.70;15.77;;;;;;;;;;4927255;29;20048;-82
2022/04/20 10:01:36;;;;;;;23.20;15.65;;;;;;;;;;4930269;29;20705;-82
2022/04/20 10:04:06;;;;;;;29.08;14.95;;;;;;;;;;4933767;29;20048;-82
2022/04/20 10:06:34;;;;;;;20.45;14.20;;;;;;;;;;4927094;29;20067;-82
2022/04/20 10:09:00;;;;;;;23.60;14.05;;;;;;;;;;4931851;29;20091;-83
2022/04/20 10:11:28;;;;;;;28.08;14.02;;;;;;;;;;4931401;28;20110;-82
2022/04/20 10:16:50;;;;;;;26.95;15.27;;;;;;;;;;4897460;29;20107;-83
2022/04/20 10:19:39;;;;;;;22.42;14.60;;;;;;;;;;4899303;29;20126;-82
2022/04/20 10:22:05;;;;;;;24.88;14.73;;;;;;;;;;4891269;29;20045;-82
2022/04/20 10:24:41;;;;;;;19.05;13.68;;;;;;;;;;4891728;29;20049;-82
2022/04/20 10:27:20;;;;;;;23.80;13.90;;;;;;;;;;4885128;29;20180;-85
2022/04/20 10:30:11;;;;;;;19.75;13.40;;;;;;;;;;4900087;29;20421;-82
2022/04/20 10:32:51;;;;;;;23.02;12.63;;;;;;;;;;4898136;29;20059;-82
2022/04/20 10:35:18;;;;;;;16.88;11.52;;;;;;;;;;4861302;29;20060;-79
2022/04/20 10:38:10;;;;;;;21.92;12.18;;;;;;;;;;4896419;29;20067;-81
2022/04/20 10:40:59;;;;;;;18.60;12.02;;;;;;;;;;4894063;29;20049;-80
2022/04/20 10:43:27;;;;;;;18.17;10.40;;;;;;;;;;4876318;29;20136;-82
2022/04/20 10:46:15;;;;;;;17.73;11.30;;;;;;;;;;4890892;29;20152;-80
2022/04/20 10:48:52;;;;;;;29.60;15.60;;;;;;;;;;4893174;29;20653;-82
2022/04/20 10:51:22;;;;;;;28.45;13.82;;;;;;;;;;4877365;29;20080;-83
2022/04/20 10:53:51;;;;;;;20.40;13.75;;;;;;;;;;4911066;29;20051;-81
2022/04/20 10:56:18;;;;;;;;;;;;;;;;;;4931958;28;20051;-81
2022/04/20 10:59:06;;;;;;;21.60;13.83;;;;;;;;;;4932155;29;19956;-81
2022/04/20 11:01:59;;;;;;;27.38;13.85;;;;;;;;;;4930762;29;20075;-81
2022/04/20 11:04:48;;;;;;;23.98;13.45;;;;;;;;;;4931051;29;20047;-81
2022/04/20 11:07:18;;;;;;;22.50;13.48;;;;;;;;;;4930420;28;20456;-81
2022/04/20 11:09:55;;;;;;;20.33;13.05;;;;;;;;;;4931500;28;20072;-82
2022/04/20 11:21:07;;;;;;;25.55;12.63;;;;;;;;;;4923745;28;20567;-82
2022/04/20 11:23:49;;;;;;;22.00;11.65;;;;;;;;;;4916805;28;20068;-83
2022/04/20 11:26:28;;;;;;;21.02;10.93;;;;;;;;;;4915487;29;20047;-83
2022/04/20 11:29:00;;;;;;;;;;;;;;;;;;4929522;29;20058;-83
2022/04/20 11:31:36;;;;;;;23.23;9.75;;;;;;;;;;4924768;29;20010;-82
2022/04/20 11:34:03;;;;;;;18.55;9.35;;;;;;;;;;4930110;28;20405;-83
2022/04/20 11:36:30;;;;;;;18.95;8.95;;;;;;;;;;4926763;28;20077;-83
2022/04/20 11:38:57;;;;;;;13.55;8.68;;;;;;;;;;4926969;29;20040;-84
2022/04/20 11:41:24;;;;;;;17.02;10.00;;;;;;;;;;4922768;29;20903;-82
2022/04/20 11:43:51;;;;;;;19.50;10.43;;;;;;;;;;4923562;28;20143;-82
2022/04/20 11:46:20;;;;;;;22.40;12.00;;;;;;;;;;4920466;29;20063;-82
2022/04/20 11:48:52;;;;;;;;;;;;;;;;;;4925628;28;20060;-83
2022/04/20 11:51:21;;;;;;;16.15;9.77;;;;;;;;;;4926034;28;20418;-81
2022/04/20 11:53:49;;;;;;;17.73;10.27;;;;;;;;;;4924453;29;20508;-80
2022/04/20 11:56:15;;;;;;;15.50;9.85;;;;;;;;;;4925317;28;20080;-83
2022/04/20 11:58:52;;;;;;;18.33;9.48;;;;;;;;;;4925936;29;20075;-83
2022/04/20 12:01:22;;;;;;;14.88;10.10;;;;;;;;;;4920057;29;20472;-80
2022/04/20 12:03:50;;;;;;;14.10;8.13;;;;;;;;;;4911099;29;20052;-83
2022/04/20 12:06:18;;;;;;;16.43;8.53;;;;;;;;;;4909232;29;21031;-83
2022/04/20 12:08:45;;;;;;;16.13;8.60;;;;;;;;;;4913395;29;20086;-83
2022/04/20 12:11:12;;;;;;;16.10;7.60;;;;;;;;;;4910663;29;20100;-83
2022/04/20 12:13:41;;;;;;;17.85;10.13;;;;;;;;;;4915431;29;20134;-81
2022/04/20 12:16:08;;;;;;;18.67;10.30;;;;;;;;;;4909786;29;20086;-81
2022/04/20 12:18:39;;;;;;;21.40;10.00;;;;;;;;;;4913813;29;20048;-84
2022/04/20 12:21:27;;;;;;;14.52;9.25;;;;;;;;;;4917426;29;20088;-83
2022/04/20 12:23:53;;;;;;;15.65;9.57;;;;;;;;;;4915516;29;20131;-79
2022/04/20 12:26:27;;;;;;;13.80;9.52;;;;;;;;;;4892343;29;20135;-82
2022/04/20 12:29:01;;;;;;;19.15;8.93;;;;;;;;;;4912338;29;20096;-82
2022/04/20 12:31:29;;;;;;;13.60;7.60;;;;;;;;;;4907107;29;20497;-82
2022/04/20 12:34:04;;;;;;;13.40;8.13;;;;;;;;;;4910545;29;20048;-82
2022/04/20 12:36:31;;;;;;;13.98;7.53;;;;;;;;;;4910423;29;20134;-83
2022/04/20 12:38:58;;;;;;;13.55;7.03;;;;;;;;;;4910739;29;20777;-83
2022/04/20 12:41:45;;;;;;;12.15;6.38;;;;;;;;;;4910797;29;20095;-81
2022/04/20 12:44:39;;;;;;;18.23;9.32;;;;;;;;;;4910382;29;20402;-82
2022/04/20 12:47:06;;;;;;;18.45;8.02;;;;;;;;;;4910255;29;20115;-82
2022/04/20 12:49:33;;;;;;;21.52;8.02;;;;;;;;;;4911540;29;20051;-83
2022/04/20 12:52:14;;;;;;;17.48;7.43;;;;;;;;;;4915325;29;20059;-82
2022/04/20 12:54:51;;;;;;;16.80;8.70;;;;;;;;;;4885545;29;20080;-82
2022/04/20 13:03:16;;;;;;;17.73;8.98;;;;;;;;;;4904722;29;20043;-82
2022/04/20 13:05:44;;;;;;;16.08;9.30;;;;;;;;;;4905871;29;20127;-82
2022/04/20 13:08:12;;;;;;;15.50;8.52;;;;;;;;;;4908039;29;20056;-82
2022/04/20 13:10:41;;;;;;;17.33;7.88;;;;;;;;;;4910946;29;20063;-82
2022/04/20 13:13:08;;;;;;;14.02;8.00;;;;;;;;;;4908505;29;20142;-83
2022/04/20 13:15:37;;;;;;;12.98;7.60;;;;;;;;;;4910201;29;20107;-81
2022/04/20 13:18:04;;;;;;;13.18;7.85;;;;;;;;;;4908423;29;20096;-81
2022/04/20 13:20:31;;;;;;;17.55;9.13;;;;;;;;;;4909001;29;20056;-80
2022/04/20 13:22:59;;;;;;;14.35;8.90;;;;;;;;;;4910073;29;20482;-83
2022/04/20 13:28:11;;;;;;;16.90;8.90;;;;;;;;;;4909061;29;20067;-82
2022/04/20 13:30:39;;;;;;;12.90;8.07;;;;;;;;;;4908216;29;20060;-82
2022/04/20 13:33:10;;;;;;;15.93;8.50;;;;;;;;;;4908828;29;20663;-82
2022/04/20 13:35:38;;;;;;;18.70;9.65;;;;;;;;;;4909614;29;20056;-82
2022/04/20 13:38:09;;;;;;;15.48;8.85;;;;;;;;;;4908540;29;20060;-82
2022/04/20 13:40:38;;;;;;;15.88;9.18;;;;;;;;;;4910424;29;20075;-82
2022/04/20 13:43:06;;;;;;;15.57;8.50;;;;;;;;;;4908166;29;20095;-81
2022/04/20 13:45:32;;;;;;;14.95;8.95;;;;;;;;;;4909173;29;20135;-81
2022/04/20 13:47:59;;;;;;;15.75;8.63;;;;;;;;;;4908913;29;20079;-82
2022/04/20 13:50:26;;;;;;;15.18;9.30;;;;;;;;;;4907916;29;20056;-82
2022/04/20 13:52:55;;;;;;;14.52;8.32;;;;;;;;;;4908985;29;20604;-81
2022/04/20 13:55:22;;;;;;;16.88;8.15;;;;;;;;;;4907398;29;20056;-82
2022/04/20 13:57:48;;;;;;;16.77;9.32;;;;;;;;;;4908976;29;20143;-81
2022/04/20 14:00:15;;;;;;;17.58;9.95;;;;;;;;;;4908614;29;20087;-81
2022/04/20 14:02:42;;;;;;;17.92;10.00;;;;;;;;;;4936547;28;20157;-82
2022/04/20 14:05:10;;;;;;;17.13;10.07;;;;;;;;;;4935587;28;20134;-82
2022/04/20 14:07:38;;;;;;;17.80;10.48;;;;;;;;;;4938557;28;20138;-83
2022/04/20 14:10:07;;;;;;;19.55;11.25;;;;;;;;;;4930060;28;20058;-83
2022/04/20 14:12:35;;;;;;;20.20;10.85;;;;;;;;;;4931615;28;20519;-81
2022/04/20 14:15:02;;;;;;;17.05;11.25;;;;;;;;;;4934589;29;20461;-82
2022/04/20 14:17:29;;;;;;;19.60;11.77;;;;;;;;;;4932307;29;20043;-82
2022/04/20 14:19:57;;;;;;;18.40;12.15;;;;;;;;;;4939853;28;20079;-81
2022/04/20 14:22:26;;;;;;;19.45;11.90;;;;;;;;;;4935645;28;20458;-82
2022/04/20 14:33:17;;;;;;;20.27;12.98;;;;;;;;;;4932437;28;20153;-81
2022/04/20 14:35:44;;;;;;;19.48;12.50;;;;;;;;;;4929715;29;20082;-83
2022/04/20 14:38:10;;;;;;;20.88;11.40;;;;;;;;;;4929442;29;20078;-82
2022/04/20 14:40:37;;;;;;;22.00;12.80;;;;;;;;;;4927148;29;20146;-82
2022/04/20 14:43:05;;;;;;;21.15;14.30;;;;;;;;;;4928835;28;20134;-83
2022/04/20 14:45:32;;;;;;;20.05;13.93;;;;;;;;;;4924769;29;20134;-82
2022/04/20 14:48:01;;;;;;;21.02;12.52;;;;;;;;;;4925371;29;20079;-80
2022/04/20 14:50:28;;;;;;;22.52;13.38;;;;;;;;;;4931271;28;20106;-82
2022/04/20 14:52:55;;;;;;;21.38;13.93;;;;;;;;;;4922518;29;20131;-82
2022/04/20 14:55:21;;;;;;;26.58;13.65;;;;;;;;;;4931726;29;20071;-82
2022/04/20 14:57:48;;;;;;;26.65;16.10;;;;;;;;;;4936675;28;20588;-82
2022/04/20 15:00:15;;;;;;;20.85;14.68;;;;;;;;;;4927892;28;20831;-83
2022/04/20 15:02:41;;;;;;;26.02;15.23;;;;;;;;;;4925925;29;20051;-80
2022/04/20 15:05:08;;;;;;;27.42;15.43;;;;;;;;;;4926291;29;20043;-83
2022/04/20 15:07:35;;;;;;;27.60;15.82;;;;;;;;;;4927547;29;20055;-81
2022/04/20 15:10:03;;;;;;;25.90;15.75;;;;;;;;;;4925126;29;20080;-80
2022/04/20 15:12:30;;;;;;;30.60;17.08;;;;;;;;;;4925166;29;20130;-83
2022/04/20 15:14:57;;;;;;;38.67;18.48;;;;;;;;;;4921711;29;20088;-83
2022/04/20 15:17:24;;;;;;;26.10;17.13;;;;;;;;;;4924854;29;20059;-82
2022/04/20 15:19:53;;;;;;;30.38;16.73;;;;;;;;;;4925378;29;20083;-83
2022/04/20 15:22:20;;;;;;;23.90;16.13;;;;;;;;;;4926039;29;20086;-83
2022/04/20 15:24:48;;;;;;;27.50;16.80;;;;;;;;;;4926847;29;20066;-81
2022/04/20 15:27:14;;;;;;;26.25;16.58;;;;;;;;;;4940972;29;20043;-83
2022/04/20 15:29:42;;;;;;;30.38;17.98;;;;;;;;;;4925746;29;20134;-82
2022/04/20 15:32:09;;;;;;;28.10;19.73;;;;;;;;;;4926045;29;20142;-82
2022/04/20 15:34:36;;;;;;;31.60;19.52;;;;;;;;;;4927702;29;20529;-82
2022/04/20 15:37:05;;;;;;;26.73;18.27;;;;;;;;;;4926003;29;20079;-81
2022/04/20 15:39:33;;;;;;;26.27;18.58;;;;;;;;;;4926402;29;20108;-83
2022/04/20 15:42:20;;;;;;;29.00;19.27;;;;;;;;;;4930588;28;20052;-81
2022/04/20 15:44:47;;;;;;;29.52;19.60;;;;;;;;;;4931237;28;20447;-83
2022/04/20 15:47:14;;;;;;;27.40;19.08;;;;;;;;;;4930683;29;20094;-81
2022/04/20 15:49:41;;;;;;;28.92;20.40;;;;;;;;;;4931649;29;20043;-82
2022/04/20 15:52:08;;;;;;;27.08;18.63;;;;;;;;;;4925377;28;20509;-82
2022/04/20 15:54:35;;;;;;;34.35;21.33;;;;;;;;;;4934485;29;20071;-82
2022/04/20 16:02:34;;;;;;;36.67;20.73;;;;;;;;;;4934297;29;20051;-82
2022/04/20 16:05:01;;;;;;;34.47;20.67;;;;;;;;;;4934694;29;20063;-82
2022/04/20 16:07:27;;;;;;;33.53;20.65;;;;;;;;;;4932894;29;20059;-83
2022/04/20 16:09:59;;;;;;;32.20;21.05;;;;;;;;;;4934651;29;20051;-81
2022/04/20 16:12:26;;;;;;;30.08;22.48;;;;;;;;;;4934229;29;20103;-80
2022/04/20 16:14:53;;;;;;;35.25;21.60;;;;;;;;;;4934563;29;20052;-82
2022/04/20 16:17:19;;;;;;;31.02;20.92;;;;;;;;;;4933322;28;20092;-81
2022/04/20 16:19:46;;;;;;;41.78;22.23;;;;;;;;;;4935003;29;20056;-82
2022/04/20 16:22:12;;;;;;;30.80;21.15;;;;;;;;;;4933706;28;20134;-80
2022/04/20 16:24:39;;;;;;;34.83;22.90;;;;;;;;;;4933887;29;20528;-82
2022/04/20 16:27:06;;;;;;;39.75;23.15;;;;;;;;;;4929845;28;20528;-84
2022/04/20 16:29:32;;;;;;;36.78;23.98;;;;;;;;;;4921232;29;20095;-81
2022/04/20 16:31:59;;;;;;;50.20;23.17;;;;;;;;;;4932305;29;20142;-82
2022/04/20 16:34:27;;;;;;;38.13;22.70;;;;;;;;;;4932685;29;20453;-81
2022/04/20 16:36:54;;;;;;;37.15;22.90;;;;;;;;;;4930320;29;20340;-83
2022/04/20 16:39:24;;;;;;;36.85;22.67;;;;;;;;;;4934024;28;20044;-84
2022/04/20 16:41:52;;;;;;;35.45;23.52;;;;;;;;;;4936889;28;20174;-83
2022/04/20 16:44:22;;;;;;;36.40;23.70;;;;;;;;;;4933856;28;20127;-82
2022/04/20 16:46:49;;;;;;;43.45;24.65;;;;;;;;;;4934201;29;20134;-83
2022/04/20 16:49:17;;;;;;;36.25;24.50;;;;;;;;;;4933568;28;20048;-83
2022/04/20 16:51:44;;;;;;;33.55;23.65;;;;;;;;;;4934117;28;20060;-83
2022/04/20 16:54:10;;;;;;;34.60;23.88;;;;;;;;;;4934130;28;20054;-82
2022/04/20 16:56:37;;;;;;;34.33;22.75;;;;;;;;;;4923146;28;20070;-80
2022/04/20 16:59:04;;;;;;;35.50;24.65;;;;;;;;;;4921879;28;20052;-80
2022/04/20 17:01:31;;;;;;;31.58;23.25;;;;;;;;;;4933630;29;20051;-82
2022/04/20 17:03:58;;;;;;;34.80;23.73;;;;;;;;;;4924147;29;20076;-80
2022/04/20 17:06:25;;;;;;;42.88;25.02;;;;;;;;;;4929127;28;20063;-82
2022/04/20 17:08:51;;;;;;;60.88;25.50;;;;;;;;;;4932364;29;20481;-82
2022/04/20 17:11:18;;;;;;;44.05;23.90;;;;;;;;;;4940023;28;20508;-79
2022/04/20 17:13:45;;;;;;;39.55;25.02;;;;;;;;;;4930327;29;20075;-81
2022/04/20 17:16:11;;;;;;;31.30;24.42;;;;;;;;;;4922556;28;20123;-79
2022/04/20 17:18:38;;;;;;;33.85;24.08;;;;;;;;;;4929333;28;20047;-81
2022/04/20 17:26:37;;;;;;;42.20;25.50;;;;;;;;;;4920819;29;20078;-79
2022/04/20 17:29:08;;;;;;;39.90;25.70;;;;;;;;;;4928691;29;20512;-80
2022/04/20 17:31:40;;;;;;;38.97;24.20;;;;;;;;;;4932191;29;20107;-79
2022/04/20 17:34:08;;;;;;;35.08;24.48;;;;;;;;;;4928318;29;20130;-78
2022/04/20 17:36:48;;;;;;;40.42;24.50;;;;;;;;;;4932826;28;20047;-81
2022/04/20 17:39:16;;;;;;;37.65;24.00;;;;;;;;;;4932758;28;20110;-81
2022/04/20 17:41:46;;;;;;;34.47;24.42;;;;;;;;;;4932864;29;20035;-81
2022/04/20 17:44:13;;;;;;;33.67;23.58;;;;;;;;;;4931197;28;20843;-80
2022/04/20 17:46:41;;;;;;;36.53;24.65;;;;;;;;;;4928925;29;20099;-80
2022/04/20 17:49:07;;;;;;;33.10;24.35;;;;;;;;;;4928591;29;20142;-81
2022/04/20 17:51:34;;;;;;;35.67;24.50;;;;;;;;;;4927002;29;20142;-80
2022/04/20 17:54:03;;;;;;;34.38;24.17;;;;;;;;;;4928769;29;20143;-79
2022/04/20 17:56:34;;;;;;;29.58;22.88;;;;;;;;;;4928532;29;20075;-80
2022/04/20 17:59:04;;;;;;;37.00;23.55;;;;;;;;;;4928294;29;20071;-80
2022/04/20 18:01:35;;;;;;;33.92;23.85;;;;;;;;;;4928899;29;20047;-79
2022/04/20 18:04:02;;;;;;;31.45;22.23;;;;;;;;;;4928972;29;20074;-80
2022/04/20 18:06:28;;;;;;;31.95;23.13;;;;;;;;;;4928383;29;20050;-79
2022/04/20 18:08:55;;;;;;;37.45;24.67;;;;;;;;;;4928148;29;20048;-79
2022/04/20 18:11:23;;;;;;;38.90;25.10;;;;;;;;;;4927952;29;20123;-76
2022/04/20 18:13:52;;;;;;;35.67;25.98;;;;;;;;;;4928765;29;20274;-79
2022/04/20 18:16:19;;;;;;;38.80;25.77;;;;;;;;;;4927905;29;20102;-79
2022/04/20 18:18:47;;;;;;;39.92;24.80;;;;;;;;;;4926860;29;20123;-79
2022/04/20 18:21:15;;;;;;;40.60;25.20;;;;;;;;;;4927671;29;20067;-79
2022/04/20 18:23:41;;;;;;;38.28;26.25;;;;;;;;;;4926649;29;20568;-79
2022/04/20 18:26:08;;;;;;;36.95;25.40;;;;;;;;;;4926728;29;20059;-79
2022/04/20 18:28:35;;;;;;;35.50;26.35;;;;;;;;;;4922266;29;20055;-78
2022/04/20 18:31:04;;;;;;;41.40;28.20;;;;;;;;;;4927527;29;20584;-79
2022/04/20 18:33:31;;;;;;;36.17;26.25;;;;;;;;;;4927194;29;20063;-80
2022/04/20 18:35:57;;;;;;;41.88;28.20;;;;;;;;;;4927904;29;20134;-81
2022/04/20 18:38:24;;;;;;;43.80;27.15;;;;;;;;;;4925789;29;20142;-81
2022/04/20 18:40:51;;;;;;;39.30;27.90;;;;;;;;;;4923861;29;20082;-79
2022/04/20 18:43:19;;;;;;;44.65;28.02;;;;;;;;;;4925270;29;20079;-82
2022/04/20 18:45:45;;;;;;;44.17;29.05;;;;;;;;;;4924648;29;20060;-82
2022/04/20 18:48:12;;;;;;;43.72;28.55;;;;;;;;;;4926523;29;20056;-80
2022/04/20 18:50:38;;;;;;;44.22;28.60;;;;;;;;;;4927349;29;20130;-80
2022/04/20 18:58:35;;;;;;;48.65;29.13;;;;;;;;;;4928048;29;20067;-80
2022/04/20 19:01:03;;;;;;;43.88;30.48;;;;;;;;;;4923479;29;20532;-80
2022/04/20 19:03:29;;;;;;;50.97;30.97;;;;;;;;;;4924977;29;20044;-80
2022/04/20 19:05:56;;;;;;;49.00;30.13;;;;;;;;;;4922237;29;20047;-79
2022/04/20 19:08:23;;;;;;;54.30;33.47;;;;;;;;;;4924512;29;20044;-79
2022/04/20 19:10:51;;;;;;;49.40;31.40;;;;;;;;;;4922874;29;20055;-77
2022/04/20 19:13:18;;;;;;;50.78;31.58;;;;;;;;;;4926786;28;20043;-80
2022/04/20 19:15:46;;;;;;;49.35;31.15;;;;;;;;;;4926172;29;20177;-81
2022/04/20 19:18:12;;;;;;;50.10;30.40;;;;;;;;;;4926135;28;20118;-79
2022/04/20 19:20:44;;;;;;;44.67;30.58;;;;;;;;;;4926765;29;20114;-79
2022/04/20 19:23:11;;;;;;;47.63;31.30;;;;;;;;;;4926449;28;20800;-78
2022/04/20 19:25:39;;;;;;;52.67;30.88;;;;;;;;;;4927540;29;20079;-79
2022/04/20 19:28:06;;;;;;;47.15;31.00;;;;;;;;;;4926404;29;20071;-77
2022/04/20 19:30:33;;;;;;;41.95;29.83;;;;;;;;;;4927004;29;20225;-79
2022/04/20 19:33:04;;;;;;;49.97;31.15;;;;;;;;;;4929481;28;20075;-79
2022/04/20 19:35:30;;;;;;;45.05;30.35;;;;;;;;;;4930308;28;20129;-79
2022/04/20 19:37:57;;;;;;;48.42;30.52;;;;;;;;;;4931543;28;20453;-80
2022/04/20 19:40:23;;;;;;;51.05;31.50;;;;;;;;;;4930435;28;20071;-80
2022/04/20 19:42:50;;;;;;;52.33;31.75;;;;;;;;;;4929133;29;20086;-79
2022/04/20 19:45:16;;;;;;;52.97;32.70;;;;;;;;;;4930269;29;20118;-79
2022/04/20 19:47:44;;;;;;;50.83;33.33;;;;;;;;;;4931495;29;20123;-79
2022/04/20 19:50:11;;;;;;;52.03;32.47;;;;;;;;;;4930413;29;20045;-79
2022/04/20 19:52:38;;;;;;;55.00;31.73;;;;;;;;;;4931936;29;20056;-79
2022/04/20 19:55:05;;;;;;;50.42;32.30;;;;;;;;;;4929869;29;20075;-79
2022/04/20 19:57:52;;;;;;;56.83;33.60;;;;;;;;;;4930943;29;20510;-79
2022/04/20 20:00:18;;;;;;;54.13;33.30;;;;;;;;;;4930701;29;20051;-80
2022/04/20 20:02:45;;;;;;;58.00;33.05;;;;;;;;;;4930603;29;20580;-79
2022/04/20 20:05:13;;;;;;;56.38;33.63;;;;;;;;;;4929141;29;20080;-78
2022/04/20 20:07:40;;;;;;;52.97;32.75;;;;;;;;;;4931516;29;20059;-78
2022/04/20 20:10:07;;;;;;;58.08;32.75;;;;;;;;;;4930076;29;20079;-77
2022/04/20 20:12:34;;;;;;;69.72;33.63;;;;;;;;;;4930540;29;20130;-78
2022/04/20 20:15:01;;;;;;;60.97;34.28;;;;;;;;;;4928111;29;20146;-80
2022/04/20 20:17:27;;;;;;;64.22;35.00;;;;;;;;;;4930236;29;20052;-78
2022/04/20 20:19:54;;;;;;;56.25;33.42;;;;;;;;;;4930091;29;20798;-81
2022/04/20 20:22:22;;;;;;;58.20;34.10;;;;;;;;;;4930543;29;20079;-78
2022/04/20 20:30:28;;;;;;;61.33;35.47;;;;;;;;;;4889266;29;20144;-77
2022/04/20 20:33:00;;;;;;;60.30;35.53;;;;;;;;;;4891496;29;20493;-78
2022/04/20 20:35:28;;;;;;;54.83;35.15;;;;;;;;;;4889745;29;20072;-78
2022/04/20 20:37:55;;;;;;;59.88;35.45;;;;;;;;;;4889982;29;20100;-77
2022/04/20 20:40:21;;;;;;;58.08;35.40;;;;;;;;;;4889021;29;20053;-77
2022/04/20 20:42:49;;;;;;;60.95;35.72;;;;;;;;;;4890047;29;20151;-77
2022/04/20 20:45:15;;;;;;;60.50;37.38;;;;;;;;;;4889451;29;20041;-77
2022/04/20 20:47:42;;;;;;;60.58;36.28;;;;;;;;;;4890198;29;20089;-77
2022/04/20 20:52:54;;;;;;;66.78;37.33;;;;;;;;;;4889204;29;20164;-77
2022/04/20 20:55:22;;;;;;;66.60;37.63;;;;;;;;;;4890103;29;20103;-78
2022/04/20 20:57:48;;;;;;;66.00;39.08;;;;;;;;;;4889729;29;20107;-79
2022/04/20 21:00:15;;;;;;;73.68;39.13;;;;;;;;;;4888645;29;20111;-78
2022/04/20 21:02:42;;;;;;;68.57;39.00;;;;;;;;;;4874332;29;20069;-79
2022/04/20 21:05:13;;;;;;;73.03;40.88;;;;;;;;;;4874418;29;20478;-78
2022/04/20 21:07:39;;;;;;;66.93;39.53;;;;;;;;;;4893497;29;20076;-78
2022/04/20 21:10:07;;;;;;;70.55;39.55;;;;;;;;;;4903270;29;20048;-78
2022/04/20 21:12:34;;;;;;;72.53;40.67;;;;;;;;;;4909055;29;20088;-78
2022/04/20 21:15:01;;;;;;;72.15;40.05;;;;;;;;;;4893731;29;20080;-78
2022/04/20 21:17:28;;;;;;;70.05;39.92;;;;;;;;;;4914048;29;20108;-78
2022/04/20 21:19:55;;;;;;;71.75;40.40;;;;;;;;;;4904233;29;20128;-79
2022/04/20 21:22:21;;;;;;;73.80;39.67;;;;;;;;;;4912896;29;20102;-79
2022/04/20 21:24:52;;;;;;;68.32;39.35;;;;;;;;;;4914109;29;20437;-78
2022/04/20 21:27:24;;;;;;;70.53;40.03;;;;;;;;;;4913823;29;20048;-80
2022/04/20 21:29:52;;;;;;;72.03;41.13;;;;;;;;;;4914447;29;20104;-79
2022/04/20 21:32:19;;;;;;;77.00;41.58;;;;;;;;;;4898935;29;20505;-79
2022/04/20 21:34:45;;;;;;;72.15;41.10;;;;;;;;;;4894159;29;20071;-79
2022/04/20 21:37:12;;;;;;;69.82;40.97;;;;;;;;;;4913058;29;20096;-79
2022/04/20 21:39:39;;;;;;;78.35;42.17;;;;;;;;;;4897338;29;20044;-79
2022/04/20 21:42:07;;;;;;;71.75;43.60;;;;;;;;;;4913502;29;20067;-77
2022/04/20 21:44:34;;;;;;;77.03;42.25;;;;;;;;;;4914169;29;20048;-78